Station History

Weather Underground - logo

Station Historical Data
Daily Summary for February 5, 2018 Units:  Metric    English   Both
« Previous Day
Next Day »
Daily Weekly Monthly Yearly Custom
  High: Low: Average:
Temperature: 22.9 °C 6.5 °C 15.3 °C
Dew Point: 13.1 °C 5.6 °C 10.4 °C
Humidity: 96 % 49 % 74 %
Wind Speed: 7.4 km/h 0 km/h 1 km/h
Wind Gust: 7.4 km/h - -
Wind:- - West
Pressure: 1018.5 hPa 1013.8 hPa -
Precipitation: 0 mm    
Historical Graphs
 
 
Tabular Data for February 5, 2018
Time Temperature Dew Point Pressure Wind Wind Speed Wind Gust Humidity Rainfall Rate (Hourly)
00:02 10.3 °C 8.4 °C 1018.2 hPa Calm     88 % 0 mm
00:07 9.9 °C 8.1 °C 1018.2 hPa Calm     88 % 0 mm
00:12 9.7 °C 7.9 °C 1018.2 hPa Calm     89 % 0 mm
00:17 9.6 °C 8 °C 1018.2 hPa Calm     90 % 0 mm
00:22 9.4 °C 7.9 °C 1018.2 hPa Calm     90 % 0 mm
00:27 9.3 °C 7.7 °C 1018.2 hPa Calm     90 % 0 mm
00:32 9.1 °C 7.6 °C 1018.2 hPa Calm     90 % 0 mm
00:37 9.1 °C 7.7 °C 1018.2 hPa Calm     91 % 0 mm
00:42 8.9 °C 7.4 °C 1018.2 hPa Calm     90 % 0 mm
00:47 8.8 °C 7.3 °C 1018.2 hPa Calm     90 % 0 mm
00:52 8.7 °C 7.1 °C 1017.8 hPa Calm     90 % 0 mm
00:57 8.6 °C 7.2 °C 1018.2 hPa Calm     91 % 0 mm
01:02 8.5 °C 7.1 °C 1017.8 hPa Calm     91 % 0 mm
01:07 8.5 °C 7.3 °C 1017.8 hPa Calm     92 % 0 mm
01:12 8.5 °C 7.3 °C 1017.8 hPa Calm     92 % 0 mm
01:17 8.5 °C 7.3 °C 1018.2 hPa Calm     92 % 0 mm
01:22 8.6 °C 7.4 °C 1018.2 hPa Calm     92 % 0 mm
01:27 8.7 °C 7.4 °C 1018.2 hPa Calm     92 % 0 mm
01:32 8.7 °C 7.4 °C 1018.2 hPa Calm     92 % 0 mm
06:02 7.9 °C 7.1 °C 1017.5 hPa Calm     95 % 0 mm
06:07 7.7 °C 6.8 °C 1017.5 hPa Calm     94 % 0 mm
06:12 7.5 °C 6.6 °C 1017.5 hPa Calm     94 % 0 mm
06:17 7.4 °C 6.5 °C 1017.8 hPa Calm     94 % 0 mm
06:22 7.3 °C 6.4 °C 1017.8 hPa Calm     94 % 0 mm
06:27 6.9 °C 5.8 °C 1017.8 hPa Calm     93 % 0 mm
06:32 6.7 °C 5.7 °C 1017.8 hPa Calm     93 % 0 mm
06:37 6.7 °C 5.8 °C 1018.2 hPa Calm     94 % 0 mm
06:42 6.7 °C 5.8 °C 1018.2 hPa Calm     94 % 0 mm
06:47 6.6 °C 5.7 °C 1018.2 hPa Calm     94 % 0 mm
06:52 6.5 °C 5.6 °C 1018.2 hPa Calm     94 % 0 mm
06:57 6.5 °C 5.6 °C 1018.2 hPa Calm     94 % 0 mm
07:02 6.5 °C 5.6 °C 1018.2 hPa Calm     94 % 0 mm
07:07 6.5 °C 5.6 °C 1018.2 hPa Calm     94 % 0 mm
07:12 6.6 °C 5.9 °C 1018.2 hPa Calm     95 % 0 mm
07:17 6.7 °C 5.9 °C 1018.2 hPa Calm     95 % 0 mm
07:22 6.7 °C 5.9 °C 1018.2 hPa Calm     95 % 0 mm
07:27 6.7 °C 5.9 °C 1018.5 hPa Calm     95 % 0 mm
07:32 6.9 °C 6.2 °C 1018.5 hPa Calm     95 % 0 mm
07:37 7.1 °C 6.3 °C 1018.5 hPa Calm     95 % 0 mm
07:43 7.3 °C 6.6 °C 1018.5 hPa Calm     95 % 0 mm
07:48 7.6 °C 6.8 °C 1018.2 hPa Calm     95 % 0 mm
07:53 7.9 °C 7.3 °C 1018.2 hPa Calm     96 % 0 mm
07:58 8.3 °C 7.7 °C 1018.2 hPa Calm     96 % 0 mm
08:03 8.7 °C 8.1 °C 1018.2 hPa Calm     96 % 0 mm
08:08 9.1 °C 8.3 °C 1018.2 hPa Calm     95 % 0 mm
08:13 9.5 °C 8.6 °C 1018.2 hPa Calm     94 % 0 mm
08:18 9.9 °C 8.8 °C 1018.2 hPa Calm     93 % 0 mm
08:23 10.3 °C 9.1 °C 1018.2 hPa Calm     92 % 0 mm
08:28 10.8 °C 9.4 °C 1018.2 hPa Calm     91 % 0 mm
08:33 11.2 °C 9.7 °C 1018.2 hPa Calm     90 % 0 mm
08:38 11.9 °C 10.2 °C 1018.2 hPa Calm     89 % 0 mm
08:43 12.6 °C 10.5 °C 1018.2 hPa Calm     87 % 0 mm
08:48 13.3 °C 10.8 °C 1018.2 hPa Calm     85 % 0 mm
08:53 14 °C 11.2 °C 1018.2 hPa Calm     83 % 0 mm
08:58 14.4 °C 11.4 °C 1018.2 hPa Calm     82 % 0 mm
09:03 14.8 °C 11.6 °C 1018.2 hPa Calm     81 % 0 mm
09:08 14.9 °C 11.7 °C 1018.2 hPa Calm     81 % 0 mm
09:13 14.8 °C 11.2 °C 1018.2 hPa Calm     79 % 0 mm
09:18 15.1 °C 11.4 °C 1018.2 hPa Calm     79 % 0 mm
09:23 15.2 °C 11.6 °C 1018.2 hPa SSE 1.9 km/h 1.9 km/h 79 % 0 mm
09:28 15.4 °C 11.6 °C 1018.2 hPa South 1.9 km/h 1.9 km/h 78 % 0 mm
09:33 15.6 °C 11.6 °C 1017.8 hPa SE 1.9 km/h   77 % 0 mm
09:38 15.8 °C 11.6 °C 1017.8 hPa Calm     76 % 0 mm
09:43 15.9 °C 11.4 °C 1018.2 hPa Calm     75 % 0 mm
09:48 16.2 °C 11.6 °C 1017.8 hPa SE 1.9 km/h   74 % 0 mm
09:53 16.3 °C 11.3 °C 1017.8 hPa Calm     72 % 0 mm
09:58 16.3 °C 11.5 °C 1018.2 hPa Calm     73 % 0 mm
10:03 16.6 °C 11.7 °C 1017.8 hPa Calm     73 % 0 mm
10:08 17.2 °C 12.1 °C 1017.8 hPa Calm     72 % 0 mm
10:13 17.6 °C 12.2 °C 1017.8 hPa Calm     71 % 0 mm
10:18 17.8 °C 12.3 °C 1018.2 hPa Calm     70 % 0 mm
10:23 18.1 °C 12.6 °C 1018.2 hPa Calm     70 % 0 mm
10:28 18.3 °C 12.6 °C 1017.8 hPa SE 1.9 km/h   69 % 0 mm
10:33 18.4 °C 12.4 °C 1018.2 hPa South 1.9 km/h 1.9 km/h 68 % 0 mm
10:38 18.6 °C 12.3 °C 1018.2 hPa NW 1.9 km/h 1.9 km/h 67 % 0 mm
10:43 18.6 °C 12.8 °C 1018.2 hPa Calm     69 % 0 mm
10:48 18.4 °C 12.4 °C 1018.2 hPa WNW 3.7 km/h 3.7 km/h 68 % 0 mm
10:53 18.3 °C 12.1 °C 1018.2 hPa NW 3.7 km/h 3.7 km/h 67 % 0 mm
10:58 18.3 °C 12.1 °C 1018.2 hPa North 3.7 km/h 3.7 km/h 67 % 0 mm
11:03 18.6 °C 12.3 °C 1018.2 hPa NNW 3.7 km/h 3.7 km/h 67 % 0 mm
11:08 18.6 °C 11.8 °C 1018.2 hPa NW 5.6 km/h 5.6 km/h 65 % 0 mm
11:13 18.6 °C 12.3 °C 1018.2 hPa Calm     67 % 0 mm
11:18 18.9 °C 12.2 °C 1017.8 hPa NW 1.9 km/h 1.9 km/h 65 % 0 mm
11:23 19.1 °C 12.8 °C 1017.8 hPa Calm     67 % 0 mm
11:28 19.7 °C 12.7 °C 1017.8 hPa SSW 1.9 km/h 1.9 km/h 64 % 0 mm
11:33 19.9 °C 12.9 °C 1017.8 hPa NNW 1.9 km/h   64 % 0 mm
11:38 19.9 °C 12.4 °C 1017.8 hPa NW 5.6 km/h 5.6 km/h 62 % 0 mm
11:43 19.8 °C 12.6 °C 1017.5 hPa Calm     63 % 0 mm
11:48 19.9 °C 12.9 °C 1017.5 hPa NNW 1.9 km/h 1.9 km/h 64 % 0 mm
11:53 20.1 °C 12.8 °C 1017.5 hPa NW 5.6 km/h 5.6 km/h 63 % 0 mm
11:58 20 °C 12.5 °C 1017.2 hPa NE 3.7 km/h 3.7 km/h 62 % 0 mm
12:03 20 °C 12.7 °C 1017.2 hPa Calm     63 % 0 mm
12:08 20.3 °C 12.6 °C 1016.8 hPa Calm     61 % 0 mm
12:13 20.6 °C 12.8 °C 1016.8 hPa Calm     61 % 0 mm
12:18 20.7 °C 12.9 °C 1016.8 hPa NW 1.9 km/h 1.9 km/h 61 % 0 mm
12:23 20.7 °C 12.9 °C 1016.5 hPa NW 1.9 km/h 1.9 km/h 61 % 0 mm
12:28 20.8 °C 13.1 °C 1016.5 hPa Calm     61 % 0 mm
12:33 20.8 °C 12.5 °C 1016.1 hPa WNW 1.9 km/h   59 % 0 mm
12:38 21.2 °C 13.1 °C 1016.1 hPa Calm     60 % 0 mm
12:43 21.3 °C 12.9 °C 1016.1 hPa NNW 3.7 km/h 3.7 km/h 59 % 0 mm
12:48 21.3 °C 12.4 °C 1015.8 hPa NW 5.6 km/h 5.6 km/h 57 % 0 mm
12:53 21.3 °C 12.4 °C 1015.8 hPa WNW 3.7 km/h 3.7 km/h 57 % 0 mm
12:58 21.3 °C 12.4 °C 1015.8 hPa WNW 1.9 km/h   57 % 0 mm
13:03 21.5 °C 12.6 °C 1015.8 hPa WNW 1.9 km/h 1.9 km/h 57 % 0 mm
13:08 21.6 °C 12.4 °C 1015.8 hPa Calm   0.2 km/h 56 % 0 mm
13:13 21.7 °C 12.8 °C 1015.5 hPa Calm   0.2 km/h 57 % 0 mm
13:18 21.9 °C 12.8 °C 1015.5 hPa NE 3.2 km/h 3.2 km/h 56 % 0 mm
13:23 22.1 °C 12.6 °C 1015.1 hPa NW 1.9 km/h 1.9 km/h 55 % 0 mm
13:28 22.2 °C 12.2 °C 1015.1 hPa NW 5.6 km/h 5.6 km/h 53 % 0 mm
13:34 22.3 °C 12.6 °C 1015.1 hPa SW 1.9 km/h   54 % 0 mm
13:39 22.6 °C 12.5 °C 1014.8 hPa NNW 1.9 km/h 1.9 km/h 53 % 0 mm
13:44 22.6 °C 12.5 °C 1014.8 hPa NW 5.6 km/h 5.6 km/h 53 % 0 mm
13:49 22.3 °C 12.3 °C 1014.8 hPa NW 1.9 km/h 1.9 km/h 53 % 0 mm
13:54 22.3 °C 12.2 °C 1014.8 hPa SW 1.9 km/h 1.9 km/h 53 % 0 mm
13:59 22.4 °C 12.3 °C 1014.8 hPa Calm     53 % 0 mm
14:04 22.6 °C 12.5 °C 1014.8 hPa WNW 3.7 km/h 3.7 km/h 53 % 0 mm
14:09 22.6 °C 12.3 °C 1014.8 hPa Calm     52 % 0 mm
14:14 22.8 °C 12.7 °C 1014.4 hPa NE 1.9 km/h   53 % 0 mm
14:19 22.9 °C 11.9 °C 1014.4 hPa WSW 5.6 km/h 5.6 km/h 50 % 0 mm
14:24 22.8 °C 12.2 °C 1014.4 hPa WNW 1.9 km/h 1.9 km/h 51 % 0 mm
14:29 22.7 °C 11.8 °C 1014.4 hPa NW 5.6 km/h 5.6 km/h 50 % 0 mm
14:34 22.7 °C 11.7 °C 1014.4 hPa Calm     50 % 0 mm
14:39 22.7 °C 11.8 °C 1014.1 hPa Calm     50 % 0 mm
14:44 22.7 °C 12 °C 1014.1 hPa Calm     51 % 0 mm
14:49 22.7 °C 12.1 °C 1014.1 hPa SE 1.9 km/h   51 % 0 mm
14:54 22.9 °C 11.6 °C 1014.1 hPa WNW 1.9 km/h 1.9 km/h 49 % 0 mm
14:59 22.9 °C 11.7 °C 1014.1 hPa NW 5.6 km/h 5.6 km/h 49 % 0 mm
15:04 22.8 °C 11.8 °C 1014.1 hPa Calm   0.2 km/h 50 % 0 mm
15:09 22.8 °C 11.9 °C 1014.1 hPa NW 3.2 km/h 3.2 km/h 50 % 0 mm
15:14 22.8 °C 11.8 °C 1014.1 hPa NW 3.7 km/h 3.7 km/h 50 % 0 mm
15:19 22.8 °C 11.8 °C 1014.1 hPa WNW 7.4 km/h 7.4 km/h 50 % 0 mm
15:24 22.7 °C 11.8 °C 1014.1 hPa NW 5.6 km/h 5.6 km/h 50 % 0 mm
15:29 22.7 °C 11.7 °C 1014.1 hPa Calm     50 % 0 mm
15:34 22.7 °C 12 °C 1014.1 hPa NW 5.6 km/h 5.6 km/h 51 % 0 mm
15:39 22.6 °C 11.7 °C 1014.1 hPa NW 3.7 km/h 3.9 km/h 50 % 0 mm
15:44 22.6 °C 11.6 °C 1013.8 hPa NNW 5.6 km/h 5.6 km/h 50 % 0 mm
15:49 22.5 °C 11.8 °C 1013.8 hPa NW 3.7 km/h 3.7 km/h 51 % 0 mm
15:54 22.4 °C 11.8 °C 1013.8 hPa NW 1.9 km/h 1.9 km/h 51 % 0 mm
15:59 22.4 °C 12.1 °C 1013.8 hPa WNW 1.6 km/h 1.6 km/h 52 % 0 mm
16:04 22.3 °C 11.7 °C 1013.8 hPa WNW 3.7 km/h 3.7 km/h 51 % 0 mm
16:09 22.2 °C 11.9 °C 1013.8 hPa NW 3.7 km/h 3.7 km/h 52 % 0 mm
16:14 22.2 °C 11.8 °C 1013.8 hPa NW 3.7 km/h 3.7 km/h 52 % 0 mm
16:19 22.1 °C 12.1 °C 1013.8 hPa WNW 3.2 km/h 3.2 km/h 53 % 0 mm
16:24 22.1 °C 12.6 °C 1014.1 hPa NW 3.7 km/h 3.7 km/h 55 % 0 mm
16:29 21.9 °C 12.2 °C 1014.1 hPa NW 3.7 km/h 3.7 km/h 54 % 0 mm
16:34 21.7 °C 12.3 °C 1014.1 hPa NW 3.2 km/h 3.2 km/h 55 % 0 mm
16:39 21.6 °C 12.1 °C 1014.1 hPa NW 1.9 km/h 1.9 km/h 55 % 0 mm
16:44 21.4 °C 12 °C 1014.1 hPa NW 1.9 km/h 1.9 km/h 55 % 0 mm
16:49 21.3 °C 12.2 °C 1014.1 hPa WNW 1.9 km/h 1.9 km/h 56 % 0 mm
16:54 21.1 °C 12 °C 1014.1 hPa Calm     56 % 0 mm
16:59 20.9 °C 11.8 °C 1014.1 hPa Calm     56 % 0 mm
17:04 20.7 °C 11.6 °C 1014.1 hPa NW 1.9 km/h   56 % 0 mm
17:09 20.4 °C 11.4 °C 1014.1 hPa Calm     56 % 0 mm
17:14 20.3 °C 11.5 °C 1014.1 hPa Calm     57 % 0 mm
17:19 19.9 °C 11.4 °C 1014.1 hPa Calm     58 % 0 mm
17:24 19.7 °C 11.2 °C 1014.4 hPa Calm     58 % 0 mm
17:29 19.6 °C 11.1 °C 1014.4 hPa Calm     58 % 0 mm
17:34 19.4 °C 11.2 °C 1014.4 hPa Calm     59 % 0 mm
17:39 19.2 °C 11.4 °C 1014.4 hPa Calm     61 % 0 mm
17:44 18.7 °C 11.2 °C 1014.4 hPa Calm     62 % 0 mm
17:49 18.2 °C 11 °C 1014.8 hPa Calm     63 % 0 mm
17:54 17.8 °C 11.1 °C 1014.8 hPa Calm     65 % 0 mm
17:59 17.3 °C 11.2 °C 1014.8 hPa Calm     67 % 0 mm
18:04 16.9 °C 11.2 °C 1014.8 hPa Calm     69 % 0 mm
18:09 16.8 °C 11.3 °C 1014.8 hPa Calm     70 % 0 mm
18:14 16.6 °C 11.1 °C 1014.8 hPa Calm     70 % 0 mm
18:19 16.3 °C 11 °C 1015.1 hPa Calm     71 % 0 mm
18:24 16.1 °C 11.1 °C 1015.1 hPa Calm     72 % 0 mm
18:29 16 °C 11.2 °C 1015.1 hPa Calm     73 % 0 mm
18:34 15.9 °C 11.1 °C 1015.1 hPa Calm     73 % 0 mm
18:39 15.8 °C 11.2 °C 1015.1 hPa Calm     74 % 0 mm
18:44 15.6 °C 10.9 °C 1015.1 hPa Calm     74 % 0 mm
18:49 15.3 °C 10.9 °C 1015.1 hPa Calm     75 % 0 mm
18:54 14.9 °C 10.7 °C 1015.1 hPa Calm     76 % 0 mm
18:59 14.6 °C 10.8 °C 1015.1 hPa Calm     78 % 0 mm
19:04 14.3 °C 10.7 °C 1015.1 hPa Calm     79 % 0 mm
19:09 14.2 °C 10.8 °C 1015.5 hPa Calm     80 % 0 mm
19:14 14.3 °C 10.9 °C 1015.5 hPa Calm     80 % 0 mm
19:19 14.3 °C 10.7 °C 1015.5 hPa Calm     79 % 0 mm
19:24 14.3 °C 10.7 °C 1015.5 hPa Calm     79 % 0 mm
19:29 14.3 °C 10.7 °C 1015.5 hPa Calm     79 % 0 mm
19:35 14.4 °C 10.8 °C 1015.5 hPa Calm     79 % 0 mm
19:40 14.4 °C 10.8 °C 1015.5 hPa Calm     79 % 0 mm
19:45 14.5 °C 10.9 °C 1015.5 hPa Calm     79 % 0 mm
19:50 14.5 °C 10.9 °C 1015.5 hPa Calm     79 % 0 mm
19:55 14.4 °C 10.8 °C 1015.5 hPa Calm     79 % 0 mm
20:00 14.3 °C 10.7 °C 1015.5 hPa Calm     79 % 0 mm
20:05 14.2 °C 10.6 °C 1015.8 hPa Calm     79 % 0 mm
20:10 14 °C 10.6 °C 1015.8 hPa Calm     80 % 0 mm
20:15 13.6 °C 10.4 °C 1015.8 hPa Calm     81 % 0 mm
20:20 13.4 °C 10.4 °C 1015.8 hPa Calm     82 % 0 mm
20:25 13.4 °C 10.6 °C 1016.1 hPa Calm     83 % 0 mm
20:30 13.3 °C 10.5 °C 1015.8 hPa Calm     83 % 0 mm
20:35 13.3 °C 10.5 °C 1015.8 hPa SE 1.9 km/h   83 % 0 mm
20:40 13.3 °C 10.4 °C 1015.8 hPa Calm     83 % 0 mm
20:45 13.2 °C 10.4 °C 1015.8 hPa Calm     83 % 0 mm
20:50 13.1 °C 10.3 °C 1015.8 hPa SE 1.9 km/h 1.9 km/h 83 % 0 mm
20:55 12.9 °C 10.3 °C 1015.8 hPa SE 1.6 km/h   84 % 0 mm
21:00 13 °C 10.3 °C 1015.8 hPa Calm     84 % 0 mm
21:05 13 °C 10.3 °C 1015.8 hPa Calm     84 % 0 mm
21:10 13 °C 10.3 °C 1015.8 hPa Calm     84 % 0 mm
21:15 12.9 °C 10.2 °C 1015.8 hPa SE 1.9 km/h   84 % 0 mm
21:20 12.7 °C 10.3 °C 1015.8 hPa Calm     85 % 0 mm
21:25 12.7 °C 10.2 °C 1015.8 hPa Calm     85 % 0 mm
21:30 12.6 °C 10.1 °C 1015.8 hPa Calm     85 % 0 mm
21:35 12.6 °C 10.3 °C 1015.8 hPa SE 1.9 km/h   86 % 0 mm
21:40 12.6 °C 10.2 °C 1015.8 hPa Calm     85 % 0 mm
21:45 12.6 °C 10.2 °C 1016.1 hPa Calm     85 % 0 mm
21:50 12.6 °C 10.2 °C 1016.1 hPa Calm     85 % 0 mm
21:55 12.5 °C 10.1 °C 1016.1 hPa Calm     85 % 0 mm
22:00 12.3 °C 9.9 °C 1015.8 hPa Calm     85 % 0 mm
22:05 12.2 °C 9.9 °C 1015.8 hPa Calm     86 % 0 mm
22:10 11.9 °C 9.7 °C 1015.8 hPa Calm     86 % 0 mm
22:15 11.7 °C 9.4 °C 1015.8 hPa Calm     86 % 0 mm
22:20 11.6 °C 9.4 °C 1015.8 hPa Calm     87 % 0 mm
22:25 11.4 °C 9.5 °C 1015.8 hPa Calm     88 % 0 mm
22:30 11.3 °C 9.4 °C 1015.8 hPa Calm     88 % 0 mm
22:35 11.2 °C 9.5 °C 1015.8 hPa Calm     89 % 0 mm
22:40 11.2 °C 9.3 °C 1015.8 hPa Calm     88 % 0 mm
22:45 10.9 °C 9.1 °C 1015.8 hPa Calm     88 % 0 mm
22:50 10.7 °C 8.6 °C 1015.8 hPa Calm     87 % 0 mm
22:55 10.4 °C 8.6 °C 1016.1 hPa Calm     88 % 0 mm
23:00 10.3 °C 8.6 °C 1015.8 hPa Calm     89 % 0 mm
23:05 10.3 °C 8.6 °C 1016.1 hPa Calm     89 % 0 mm
23:10 10.2 °C 8.5 °C 1016.1 hPa Calm     89 % 0 mm
23:15 10.1 °C 8.4 °C 1016.1 hPa Calm     89 % 0 mm
23:20 10.1 °C 8.5 °C 1016.1 hPa Calm     90 % 0 mm
23:25 10 °C 8.4 °C 1016.1 hPa Calm     90 % 0 mm
23:30 10 °C 8.4 °C 1016.1 hPa Calm     90 % 0 mm
23:35 10.2 °C 8.8 °C 1016.1 hPa Calm     91 % 0 mm
23:40 10.5 °C 9.1 °C 1016.1 hPa Calm     91 % 0 mm
23:45 10.8 °C 9.2 °C 1016.1 hPa Calm     90 % 0 mm
23:50 10.8 °C 9.1 °C 1016.1 hPa Calm     89 % 0 mm
23:55 11 °C 9.3 °C 1016.1 hPa Calm     89 % 0 mm
Park Place, Exeter, Tulare County, California, USA
Compliments of Weather Underground - 2.5 mb